Time;durP1;ratioP1;P1;durP2;ratioP2;P2;SDS_P1;SDS_P2;PMS_P1;PMS_P2;Temp;Humidity;BMP_temperature;BMP_pressure;BME280_temperature;BME280_humidity;BME280_pressure;Samples;Min_cycle;Max_cycle;Signal;HPM_P1;HPM_P2
2021/04/27 00:01:28;;;;;;;13.05;10.18;;;230.50;2252.80;;;;;;4814766;29;20087;-71
2021/04/27 00:03:54;;;;;;;14.30;9.52;;;230.50;2252.80;;;;;;4809720;29;20043;-71
2021/04/27 00:06:20;;;;;;;11.13;9.43;;;230.50;2252.80;;;;;;4807120;29;20520;-72
2021/04/27 00:08:46;;;;;;;14.32;10.65;;;230.50;2252.80;;;;;;4813435;29;20039;-72
2021/04/27 00:11:12;;;;;;;19.02;11.73;;;230.40;2252.80;;;;;;4814307;29;20030;-74
2021/04/27 00:13:38;;;;;;;17.08;11.73;;;205.70;2252.80;;;;;;4830756;29;20034;-73
2021/04/27 00:16:04;;;;;;;16.05;11.02;;;205.40;2252.80;;;;;;4815422;29;20509;-73
2021/04/27 00:18:30;;;;;;;14.57;11.45;;;205.20;2252.80;;;;;;4813979;29;20044;-73
2021/04/27 00:20:56;;;;;;;15.30;11.57;;;205.10;2252.80;;;;;;4820490;29;20098;-74
2021/04/27 00:23:22;;;;;;;15.13;11.25;;;205.10;2252.80;;;;;;4809904;29;20042;-73
2021/04/27 00:25:47;;;;;;;16.60;12.75;;;205.00;2252.80;;;;;;4812699;29;20103;-72
2021/04/27 00:28:13;;;;;;;16.83;13.45;;;205.10;2252.80;;;;;;4820752;29;20034;-73
2021/04/27 00:30:39;;;;;;;14.88;12.30;;;;;;;;;;4808078;29;20023;-74
2021/04/27 00:33:06;;;;;;;16.25;12.88;;;;;;;;;;4811808;29;20035;-73
2021/04/27 00:35:33;;;;;;;15.88;12.35;;;;;;;;;;4809627;29;20084;-73
2021/04/27 00:37:59;;;;;;;17.33;12.82;;;204.90;2252.80;;;;;;4808054;29;20031;-72
2021/04/27 00:40:26;;;;;;;14.93;12.40;;;204.80;2252.80;;;;;;4819684;29;20101;-73
2021/04/27 00:42:53;;;;;;;15.85;13.13;;;204.80;2252.80;;;;;;4814760;29;20027;-71
2021/04/27 00:45:22;;;;;;;16.90;13.68;;;180.10;2252.80;;;;;;4809410;29;20062;-72
2021/04/27 00:47:48;;;;;;;16.83;13.20;;;180.00;2252.80;;;;;;4819440;29;20053;-73
2021/04/27 00:50:17;;;;;;;15.95;13.32;;;;;;;;;;4811721;29;20039;-73
2021/04/27 00:52:44;;;;;;;16.08;13.05;;;204.80;2252.80;;;;;;4822119;29;20030;-72
2021/04/27 00:55:11;;;;;;;20.02;14.10;;;180.00;2252.80;;;;;;4813580;29;20118;-72
2021/04/27 00:57:38;;;;;;;18.98;14.15;;;180.10;2252.80;;;;;;4822684;29;20038;-72
2021/04/27 01:00:10;;;;;;;18.15;15.00;;;179.90;2252.80;;;;;;4824020;29;20034;-72
2021/04/27 01:02:36;;;;;;;18.25;14.73;;;179.90;2252.80;;;;;;4818725;29;20030;-70
2021/04/27 01:05:05;;;;;;;18.02;14.23;;;179.90;2252.80;;;;;;4819823;29;20038;-73
2021/04/27 01:07:37;;;;;;;17.67;13.77;;;179.90;2252.80;;;;;;4810136;29;20092;-73
2021/04/27 01:10:08;;;;;;;23.42;14.30;;;179.90;2252.80;;;;;;4831582;29;20375;-71
2021/04/27 01:12:39;;;;;;;16.02;14.02;;;179.70;2252.80;;;;;;4804151;29;20041;-72
2021/04/27 01:15:09;;;;;;;18.02;14.55;;;179.70;2252.80;;;;;;4811870;29;20031;-72
2021/04/27 01:17:38;;;;;;;18.83;14.05;;;179.80;2252.80;;;;;;4813693;29;20038;-72
2021/04/27 01:20:07;;;;;;;18.77;15.07;;;179.70;2252.80;;;;;;4814224;29;20031;-72
2021/04/27 01:22:54;;;;;;;20.05;15.13;;;179.70;2252.80;;;;;;4820425;29;20378;-71
2021/04/27 01:25:38;;;;;;;18.35;15.25;;;179.60;2252.80;;;;;;4803331;29;20035;-72
2021/04/27 01:28:07;;;;;;;22.40;16.20;;;205.20;2252.80;;;;;;4816473;29;20157;-72
2021/04/27 01:30:38;;;;;;;23.48;16.35;;;179.60;2252.80;;;;;;4821514;29;20076;-72
2021/04/27 01:33:10;;;;;;;18.13;15.07;;;179.60;2252.80;;;;;;4817016;29;20034;-72
2021/04/27 01:35:37;;;;;;;21.42;15.95;;;179.70;2252.80;;;;;;4812471;29;20038;-72
2021/04/27 01:38:04;;;;;;;22.55;18.33;;;179.50;2252.80;;;;;;4810163;29;20026;-72
2021/04/27 01:40:31;;;;;;;18.67;14.77;;;179.60;2252.80;;;;;;4795723;29;20039;-73
2021/04/27 01:43:00;;;;;;;19.58;15.13;;;179.60;2252.80;;;;;;4811645;29;20084;-71
2021/04/27 01:45:27;;;;;;;27.13;16.63;;;179.50;2252.80;;;;;;4812523;29;20022;-72
2021/04/27 01:48:00;;;;;;;21.38;17.08;;;179.50;2252.80;;;;;;4808704;29;20042;-72
2021/04/27 01:50:26;;;;;;;20.07;15.30;;;179.40;2252.80;;;;;;4808050;29;20029;-72
2021/04/27 01:52:53;;;;;;;20.00;14.68;;;179.50;2252.80;;;;;;4806754;29;20773;-72
2021/04/27 01:55:19;;;;;;;18.60;15.25;;;179.70;2252.80;;;;;;4806674;29;20172;-72
2021/04/27 01:57:46;;;;;;;15.65;13.70;;;179.80;2252.80;;;;;;4820587;29;20497;-72
2021/04/27 02:00:15;;;;;;;16.88;14.00;;;180.00;2252.80;;;;;;4817920;29;20061;-72
2021/04/27 02:02:42;;;;;;;15.35;13.02;;;204.80;2252.80;;;;;;4811735;29;20039;-73
2021/04/27 02:05:09;;;;;;;18.27;14.00;;;;;;;;;;4816184;29;20049;-71
2021/04/27 02:07:35;;;;;;;16.60;12.50;;;;;;;;;;4808914;29;20456;-71
2021/04/27 02:10:02;;;;;;;17.17;12.93;;;;;;;;;;4825260;29;20038;-72
2021/04/27 02:12:30;;;;;;;19.17;14.38;;;;;;;;;;4813664;29;20079;-72
2021/04/27 02:14:56;;;;;;;16.25;14.55;;;;;;;;;;4821791;29;20507;-71
2021/04/27 02:17:28;;;;;;;19.73;14.88;;;;;;;;;;4819154;29;20046;-72
2021/04/27 02:19:56;;;;;;;14.82;13.10;;;;;;;;;;4814708;29;20593;-72
2021/04/27 02:22:24;;;;;;;19.10;16.05;;;;;;;;;;4824119;29;20092;-72
2021/04/27 02:24:50;;;;;;;18.73;15.10;;;;;;;;;;4818426;29;20092;-72
2021/04/27 02:27:17;;;;;;;18.38;14.25;;;;;;;;;;4823370;29;20030;-73
2021/04/27 02:29:43;;;;;;;17.92;14.10;;;;;;;;;;4824613;29;20039;-72
2021/04/27 02:32:09;;;;;;;17.27;13.23;;;;;;;;;;4817791;29;20502;-71
2021/04/27 02:34:36;;;;;;;18.98;12.70;;;;;;;;;;4830063;29;20389;-71
2021/04/27 02:37:02;;;;;;;18.25;13.65;;;;;;;;;;4811560;29;20038;-71
2021/04/27 02:39:28;;;;;;;16.42;13.95;;;;;;;;;;4810118;29;20097;-71
2021/04/27 02:41:54;;;;;;;17.58;14.02;;;;;;;;;;4813204;29;20043;-71
2021/04/27 02:44:20;;;;;;;17.67;14.73;;;;;;;;;;4820474;29;20037;-72
2021/04/27 02:46:46;;;;;;;21.23;14.05;;;;;;;;;;4811135;29;20083;-71
2021/04/27 02:49:13;;;;;;;16.77;14.35;;;;;;;;;;4821690;29;20039;-72
2021/04/27 02:51:40;;;;;;;18.48;14.40;;;;;;;;;;4817545;29;20019;-71
2021/04/27 02:54:06;;;;;;;16.30;14.32;;;;;;;;;;4793673;29;20481;-72
2021/04/27 02:56:33;;;;;;;17.13;14.38;;;;;;;;;;4818569;29;20121;-72
2021/04/27 02:58:59;;;;;;;19.80;15.43;;;;;;;;;;4817229;29;20493;-72
2021/04/27 03:01:26;;;;;;;18.02;14.95;;;;;;;;;;4809307;29;20557;-72
2021/04/27 03:03:52;;;;;;;16.85;14.55;;;;;;;;;;4807193;29;20125;-73
2021/04/27 03:06:18;;;;;;;19.35;14.82;;;;;;;;;;4807838;29;20051;-72
2021/04/27 03:08:44;;;;;;;17.17;14.55;;;205.60;2252.80;;;;;;4806873;29;20038;-72
2021/04/27 03:11:10;;;;;;;17.23;14.52;;;205.50;2252.80;;;;;;4816253;29;20384;-72
2021/04/27 03:13:36;;;;;;;17.30;13.77;;;205.50;2252.80;;;;;;4807061;29;20516;-71
2021/04/27 03:16:02;;;;;;;18.02;15.30;;;205.50;2252.80;;;;;;4814379;29;20113;-73
2021/04/27 03:18:28;;;;;;;17.50;13.30;;;205.30;2252.80;;;;;;4805306;29;20035;-73
2021/04/27 03:20:53;;;;;;;18.88;14.57;;;205.30;2252.80;;;;;;4808666;29;20022;-72
2021/04/27 03:23:21;;;;;;;17.90;14.23;;;205.30;2252.80;;;;;;4807438;29;20038;-72
2021/04/27 03:25:47;;;;;;;18.65;14.30;;;205.30;2252.80;;;;;;4805145;29;20031;-72
2021/04/27 03:28:13;;;;;;;19.85;15.98;;;205.30;2252.80;;;;;;4806106;29;20038;-72
2021/04/27 03:30:39;;;;;;;20.48;15.35;;;205.20;2252.80;;;;;;4790191;29;20046;-72
2021/04/27 03:33:04;;;;;;;20.17;15.63;;;205.30;2252.80;;;;;;4807281;29;20486;-72
2021/04/27 03:35:30;;;;;;;17.90;14.55;;;205.30;2252.80;;;;;;4799345;29;20058;-72
2021/04/27 03:37:57;;;;;;;19.23;14.32;;;205.20;2252.80;;;;;;4812902;29;20485;-72
2021/04/27 03:40:23;;;;;;;18.45;14.80;;;205.20;2252.80;;;;;;4805018;29;20359;-72
2021/04/27 03:42:49;;;;;;;20.30;14.68;;;205.10;2252.80;;;;;;4810353;29;20049;-71
2021/04/27 03:45:18;;;;;;;21.33;14.50;;;205.10;2252.80;;;;;;4816617;29;20034;-73
2021/04/27 03:47:44;;;;;;;18.83;13.65;;;205.20;2252.80;;;;;;4819487;29;20058;-72
2021/04/27 03:50:14;;;;;;;15.82;13.25;;;205.20;2252.80;;;;;;4812284;29;20067;-72
2021/04/27 03:52:39;;;;;;;16.65;13.60;;;205.30;2252.80;;;;;;4810848;29;20035;-71
2021/04/27 03:55:06;;;;;;;17.60;13.98;;;205.30;2252.80;;;;;;4814014;29;20031;-71
2021/04/27 03:57:31;;;;;;;19.52;15.10;;;205.20;2252.80;;;;;;4835216;29;20034;-72
2021/04/27 03:59:57;;;;;;;20.27;15.02;;;205.10;2252.80;;;;;;4824276;29;20183;-71
2021/04/27 04:02:23;;;;;;;19.15;15.57;;;205.10;2252.80;;;;;;4818005;29;20038;-71
2021/04/27 04:04:49;;;;;;;20.55;14.80;;;205.10;2252.80;;;;;;4812018;29;20076;-71
2021/04/27 04:07:15;;;;;;;25.30;15.98;;;205.10;2252.80;;;;;;4817319;29;20150;-71
2021/04/27 04:09:40;;;;;;;21.42;14.90;;;205.20;2252.80;;;;;;4826304;29;20476;-70
2021/04/27 04:12:09;;;;;;;18.65;14.05;;;205.10;2252.80;;;;;;4825001;29;20034;-71
2021/04/27 04:14:36;;;;;;;19.30;13.32;;;205.20;2252.80;;;;;;4819589;29;20194;-71
2021/04/27 04:17:03;;;;;;;20.58;13.80;;;205.20;2252.80;;;;;;4812931;29;20371;-71
2021/04/27 04:19:29;;;;;;;18.35;13.60;;;205.20;2252.80;;;;;;4815036;29;20038;-71
2021/04/27 04:21:55;;;;;;;19.85;14.13;;;205.30;2252.80;;;;;;4822022;29;20502;-72
2021/04/27 04:24:21;;;;;;;18.70;13.60;;;205.20;2252.80;;;;;;4795076;29;20054;-72
2021/04/27 04:26:47;;;;;;;17.48;13.48;;;205.30;2252.80;;;;;;4816114;29;20042;-73
2021/04/27 04:29:13;;;;;;;17.13;14.32;;;205.30;2252.80;;;;;;4816086;29;20038;-73
2021/04/27 04:31:38;;;;;;;20.77;15.10;;;205.40;2252.80;;;;;;4819797;29;20478;-72
2021/04/27 04:34:04;;;;;;;20.55;14.85;;;205.30;2252.80;;;;;;4811640;29;20088;-73
2021/04/27 04:36:30;;;;;;;20.42;15.32;;;205.30;2252.80;;;;;;4810749;29;20493;-71
2021/04/27 04:38:56;;;;;;;17.77;13.45;;;205.40;2252.80;;;;;;4812500;29;20035;-72
2021/04/27 04:41:21;;;;;;;20.98;15.02;;;205.40;2252.80;;;;;;4811757;29;20079;-72
2021/04/27 04:43:48;;;;;;;21.63;14.43;;;205.30;2252.80;;;;;;4812580;29;20081;-72
2021/04/27 04:46:14;;;;;;;18.58;15.48;;;205.30;2252.80;;;;;;4808060;29;20038;-72
2021/04/27 04:48:39;;;;;;;22.77;14.98;;;205.30;2252.80;;;;;;4813835;29;20035;-74
2021/04/27 04:51:05;;;;;;;20.05;14.73;;;205.30;2252.80;;;;;;4810887;29;20169;-73
2021/04/27 04:53:31;;;;;;;20.10;15.00;;;205.30;2252.80;;;;;;4812783;29;20030;-71
2021/04/27 04:55:57;;;;;;;21.23;15.05;;;205.40;2252.80;;;;;;4815468;29;20505;-74
2021/04/27 04:58:23;;;;;;;19.48;15.75;;;205.30;2252.80;;;;;;4819411;29;20034;-72
2021/04/27 05:00:48;;;;;;;19.40;15.13;;;205.20;2252.80;;;;;;4823488;29;20031;-71
2021/04/27 05:03:14;;;;;;;20.77;15.38;;;205.30;2252.80;;;;;;4818158;29;20084;-72
2021/04/27 05:05:41;;;;;;;18.83;13.60;;;205.30;2252.80;;;;;;4811650;29;20043;-72
2021/04/27 05:08:21;;;;;;;20.05;14.90;;;205.40;2252.80;;;;;;4818645;29;20026;-76
2021/04/27 05:10:47;;;;;;;18.85;14.20;;;205.50;2252.80;;;;;;4824380;29;20250;-70
2021/04/27 05:13:12;;;;;;;16.90;13.60;;;205.60;2252.80;;;;;;4818586;29;20213;-72
2021/04/27 05:15:38;;;;;;;17.50;14.40;;;205.60;2252.80;;;;;;4814083;29;20034;-76
2021/04/27 05:18:05;;;;;;;21.13;15.52;;;205.60;2252.80;;;;;;4826878;29;20047;-70
2021/04/27 05:20:31;;;;;;;31.17;20.65;;;205.60;2252.80;;;;;;4827495;29;20496;-71
2021/04/27 05:22:57;;;;;;;32.42;21.20;;;205.60;2252.80;;;;;;4827254;29;20125;-71
2021/04/27 05:25:23;;;;;;;61.45;34.92;;;205.60;2252.80;;;;;;4814864;29;20543;-71
2021/04/27 05:27:48;;;;;;;42.22;26.88;;;205.60;2252.80;;;;;;4830068;29;20034;-71
2021/04/27 05:30:15;;;;;;;26.08;18.38;;;205.40;2252.80;;;;;;4830577;29;20044;-71
2021/04/27 05:32:40;;;;;;;29.38;17.73;;;205.50;2252.80;;;;;;4832592;29;20061;-71
2021/04/27 05:35:08;;;;;;;25.25;18.25;;;205.50;2252.80;;;;;;4817384;29;20030;-73
2021/04/27 05:37:34;;;;;;;24.33;18.73;;;205.50;2252.80;;;;;;4811384;29;20031;-71
2021/04/27 05:40:00;;;;;;;24.98;17.80;;;205.40;2252.80;;;;;;4805974;29;20043;-69
2021/04/27 05:42:26;;;;;;;25.27;19.20;;;205.30;2252.80;;;;;;4812375;29;20477;-69
2021/04/27 05:44:51;;;;;;;24.55;18.27;;;205.40;2252.80;;;;;;4815784;29;20039;-70
2021/04/27 05:47:17;;;;;;;30.75;21.17;;;205.40;2252.80;;;;;;4819478;29;20397;-71
2021/04/27 05:49:43;;;;;;;31.42;21.13;;;205.20;2252.80;;;;;;4814222;29;20133;-72
2021/04/27 05:52:09;;;;;;;32.95;21.63;;;205.30;2252.80;;;;;;4819182;29;20033;-76
2021/04/27 05:54:34;;;;;;;31.35;20.83;;;205.20;2252.80;;;;;;4823334;29;20041;-76
2021/04/27 05:57:00;;;;;;;30.05;22.05;;;205.40;2252.80;;;;;;4823534;29;20438;-76
2021/04/27 05:59:27;;;;;;;31.23;21.48;;;205.40;2252.80;;;;;;4826741;29;20034;-72
2021/04/27 06:01:52;;;;;;;32.45;24.60;;;205.40;2252.80;;;;;;4823982;29;20121;-73
2021/04/27 06:04:18;;;;;;;28.67;23.35;;;205.40;2252.80;;;;;;4817828;29;20079;-73
2021/04/27 06:06:44;;;;;;;32.95;23.33;;;205.30;2252.80;;;;;;4814115;29;20059;-72
2021/04/27 06:09:10;;;;;;;29.67;23.15;;;205.40;2252.80;;;;;;4818360;29;20037;-73
2021/04/27 06:11:36;;;;;;;28.35;22.60;;;205.30;2252.80;;;;;;4814624;29;20026;-73
2021/04/27 06:14:03;;;;;;;28.48;23.20;;;205.40;2252.80;;;;;;4819075;29;20046;-73
2021/04/27 06:16:29;;;;;;;31.52;25.58;;;205.60;2252.80;;;;;;4792962;29;20493;-74
2021/04/27 06:18:55;;;;;;;29.10;22.88;;;205.50;2252.80;;;;;;4809654;29;20540;-74
2021/04/27 06:21:21;;;;;;;30.58;22.15;;;205.60;2252.80;;;;;;4815106;29;20054;-75
2021/04/27 06:23:47;;;;;;;29.55;24.55;;;205.50;2252.80;;;;;;4834956;29;20080;-76
2021/04/27 06:26:13;;;;;;;34.95;23.42;;;205.40;2252.80;;;;;;4844147;29;20070;-80
2021/04/27 06:28:39;;;;;;;28.40;22.55;;;205.60;2252.80;;;;;;4827815;29;20098;-74
2021/04/27 06:31:05;;;;;;;31.95;25.05;;;205.60;2252.80;;;;;;4814477;29;20038;-73
2021/04/27 06:33:31;;;;;;;31.77;23.10;;;205.40;2252.80;;;;;;4815617;29;20022;-74
2021/04/27 06:35:57;;;;;;;29.30;23.45;;;205.40;2252.80;;;;;;4821731;29;20041;-73
2021/04/27 06:38:23;;;;;;;34.83;25.27;;;205.30;2252.80;;;;;;4821589;29;20180;-74
2021/04/27 06:40:50;;;;;;;27.23;22.55;;;205.20;2252.80;;;;;;4804125;29;20078;-74
2021/04/27 06:43:18;;;;;;;30.65;24.80;;;205.30;2252.80;;;;;;4822068;29;20050;-76
2021/04/27 06:45:51;;;;;;;32.03;25.38;;;205.20;2252.80;;;;;;4816577;29;20485;-76
2021/04/27 06:48:17;;;;;;;31.25;24.45;;;205.40;2252.80;;;;;;4830713;29;20038;-74
2021/04/27 06:50:45;;;;;;;34.22;26.80;;;205.30;2252.80;;;;;;4814116;29;20030;-73
2021/04/27 06:53:11;;;;;;;30.38;25.55;;;230.40;2252.80;;;;;;4809858;29;20066;-74
2021/04/27 06:55:38;;;;;;;34.97;26.98;;;205.20;2252.80;;;;;;4815224;29;20527;-74
2021/04/27 06:58:06;;;;;;;32.47;26.23;;;205.10;2252.80;;;;;;4792398;29;20049;-73
2021/04/27 07:00:33;;;;;;;38.85;30.02;;;205.20;2252.80;;;;;;4810177;29;20481;-72
2021/04/27 07:03:14;;;;;;;40.22;31.55;;;205.00;2252.80;;;;;;4816332;29;20042;-79
2021/04/27 07:06:19;;;;;;;41.95;32.88;;;205.00;2252.80;;;;;;4823918;29;20527;-74
2021/04/27 07:09:37;;;;;;;43.55;33.58;;;205.10;2252.80;;;;;;4795238;29;20034;-77
2021/04/27 07:12:06;;;;;;;51.95;38.22;;;205.20;2252.80;;;;;;4765678;30;20060;-74
2021/04/27 07:14:32;;;;;;;40.17;34.08;;;205.00;2252.80;;;;;;4742274;30;20065;-73
2021/04/27 07:16:58;;;;;;;46.60;35.22;;;205.10;2252.80;;;;;;4744593;30;20051;-74
2021/04/27 07:19:24;;;;;;;48.28;38.60;;;205.00;2252.80;;;;;;4745420;30;20044;-75
2021/04/27 07:21:51;;;;;;;46.45;37.38;;;204.90;2252.80;;;;;;4733728;30;20097;-76
2021/04/27 07:24:17;;;;;;;54.15;41.40;;;204.90;2252.80;;;;;;4748095;30;20169;-74
2021/04/27 07:26:46;;;;;;;56.13;43.13;;;205.00;2252.80;;;;;;4743881;30;20506;-75
2021/04/27 07:29:13;;;;;;;59.90;45.35;;;179.80;2252.80;;;;;;4742992;30;20507;-73
2021/04/27 07:31:40;;;;;;;54.20;42.55;;;205.00;2252.80;;;;;;4745809;30;20040;-75
2021/04/27 07:34:27;;;;;;;38.33;31.85;;;205.00;2252.80;;;;;;4767336;30;20044;-77
2021/04/27 07:37:04;;;;;;;45.83;36.33;;;205.00;2252.80;;;;;;4762670;30;20033;-80
2021/04/27 07:39:30;;;;;;;39.95;31.00;;;205.10;2252.80;;;;;;4746581;30;20049;-73
2021/04/27 07:41:55;;;;;;;32.83;26.55;;;205.10;2252.80;;;;;;4733770;30;20086;-75
2021/04/27 07:44:21;;;;;;;32.42;26.75;;;205.20;2252.80;;;;;;4768544;30;20047;-74
2021/04/27 07:46:48;;;;;;;30.60;24.58;;;205.20;2252.80;;;;;;4768644;30;20067;-73
2021/04/27 07:49:14;;;;;;;32.33;25.52;;;205.20;2252.80;;;;;;4825057;29;20026;-75
2021/04/27 07:51:40;;;;;;;30.90;23.42;;;205.20;2252.80;;;;;;4826863;29;20429;-71
2021/04/27 07:54:06;;;;;;;34.78;24.52;;;205.30;2252.80;;;;;;4819870;29;20442;-75
2021/04/27 07:56:33;;;;;;;28.75;22.38;;;205.30;2252.80;;;;;;4822049;29;20034;-74
2021/04/27 07:59:00;;;;;;;28.65;21.23;;;205.30;2252.80;;;;;;4822352;29;20045;-74
2021/04/27 08:01:26;;;;;;;26.17;20.33;;;205.30;2252.80;;;;;;4823779;29;20512;-74
2021/04/27 08:03:52;;;;;;;28.95;22.70;;;205.30;2252.80;;;;;;4820216;29;20046;-76
2021/04/27 08:06:18;;;;;;;32.20;24.27;;;205.30;2252.80;;;;;;4819218;29;20039;-72
2021/04/27 08:08:44;;;;;;;30.30;23.63;;;205.20;2252.80;;;;;;4819361;29;20378;-74
2021/04/27 08:11:10;;;;;;;30.58;23.35;;;205.30;2252.80;;;;;;4804177;29;20098;-76
2021/04/27 08:13:36;;;;;;;29.70;23.40;;;205.30;2252.80;;;;;;4809220;29;20034;-74
2021/04/27 08:16:01;;;;;;;31.05;24.33;;;205.40;2252.80;;;;;;4819437;29;20030;-74
2021/04/27 08:18:28;;;;;;;32.90;24.80;;;205.30;2252.80;;;;;;4811855;29;20447;-74
2021/04/27 08:20:54;;;;;;;35.75;26.95;;;205.30;2252.80;;;;;;4804438;29;20091;-73
2021/04/27 08:23:20;;;;;;;31.90;22.95;;;205.30;2252.80;;;;;;4813543;29;20046;-73
2021/04/27 08:25:45;;;;;;;31.08;22.60;;;205.40;2252.80;;;;;;4816685;29;20042;-73
2021/04/27 08:28:12;;;;;;;34.75;26.42;;;205.40;2252.80;;;;;;4818365;29;20028;-74
2021/04/27 08:30:38;;;;;;;34.63;24.50;;;205.40;2252.80;;;;;;4802778;29;20385;-73
2021/04/27 08:33:04;;;;;;;28.30;22.95;;;205.40;2252.80;;;;;;4812025;29;20042;-73
2021/04/27 08:35:30;;;;;;;29.00;24.35;;;205.40;2252.80;;;;;;4830165;29;20051;-71
2021/04/27 08:37:56;;;;;;;32.95;24.60;;;205.30;2252.80;;;;;;4819104;29;20031;-75
2021/04/27 08:40:22;;;;;;;30.17;23.63;;;205.30;2252.80;;;;;;4812157;29;20030;-74
2021/04/27 08:42:49;;;;;;;32.13;23.42;;;205.20;2252.80;;;;;;4815826;29;20034;-73
2021/04/27 08:45:16;;;;;;;31.90;24.13;;;205.20;2252.80;;;;;;4813261;29;20181;-75
2021/04/27 08:47:42;;;;;;;31.60;23.77;;;205.20;2252.80;;;;;;4835905;29;20037;-74
2021/04/27 08:50:10;;;;;;;35.60;26.48;;;205.10;2252.80;;;;;;4815943;29;20023;-73
2021/04/27 08:52:36;;;;;;;39.05;29.70;;;205.10;2252.80;;;;;;4816990;29;20033;-74
2021/04/27 08:55:04;;;;;;;36.38;26.90;;;205.20;2252.80;;;;;;4811199;29;20485;-73
2021/04/27 08:57:29;;;;;;;40.88;29.15;;;205.20;2252.80;;;;;;4815908;29;20482;-71
2021/04/27 08:59:55;;;;;;;46.30;32.85;;;205.20;2252.80;;;;;;4815265;29;20062;-71
2021/04/27 09:02:31;;;;;;;38.30;29.42;;;205.20;2252.80;;;;;;4815724;29;20034;-72
2021/04/27 09:04:57;;;;;;;44.00;30.27;;;204.80;2252.80;;;;;;4806578;29;20035;-71
2021/04/27 09:07:24;;;;;;;37.53;29.75;;;205.10;2252.80;;;;;;4814036;29;20043;-72
2021/04/27 09:09:59;;;;;;;43.40;33.63;;;205.20;2252.80;;;;;;4812665;29;20556;-73
2021/04/27 09:12:28;;;;;;;45.92;33.72;;;205.30;2252.80;;;;;;4810138;29;20057;-73
2021/04/27 09:14:56;;;;;;;40.20;32.03;;;205.20;2252.80;;;;;;4810724;29;20034;-73
2021/04/27 09:17:27;;;;;;;34.97;29.40;;;230.40;2252.80;;;;;;4814126;29;20045;-75
2021/04/27 09:19:55;;;;;;;37.63;29.83;;;205.50;2252.80;;;;;;4809832;29;20038;-75
2021/04/27 09:22:24;;;;;;;37.92;28.98;;;205.40;2252.80;;;;;;4808792;29;20109;-74
2021/04/27 09:24:56;;;;;;;35.60;28.85;;;205.50;2252.80;;;;;;4810065;29;20069;-76
2021/04/27 09:27:29;;;;;;;41.08;31.25;;;205.30;2252.80;;;;;;4826758;29;20039;-76
2021/04/27 09:29:56;;;;;;;36.25;27.05;;;205.40;2252.80;;;;;;4827034;29;20030;-72
2021/04/27 09:32:37;;;;;;;41.10;32.22;;;205.40;2252.80;;;;;;4818547;29;20072;-71
2021/04/27 09:35:22;;;;;;;46.10;33.63;;;205.40;2252.80;;;;;;4810723;29;20027;-71
2021/04/27 09:38:11;;;;;;;45.65;32.83;;;205.40;2252.80;;;;;;4815121;29;20071;-72
2021/04/27 09:40:47;;;;;;;46.47;34.10;;;205.40;2252.80;;;;;;4823475;29;20514;-72
2021/04/27 09:43:14;;;;;;;41.15;32.63;;;205.50;2252.80;;;;;;4816842;29;20491;-70
2021/04/27 09:45:47;;;;;;;48.35;35.83;;;205.40;2252.80;;;;;;4814969;29;20029;-75
2021/04/27 09:48:13;;;;;;;39.97;31.27;;;205.60;2252.80;;;;;;4812945;29;20521;-75
2021/04/27 09:50:40;;;;;;;41.90;33.75;;;;;;;;;;4814712;29;20045;-75
2021/04/27 09:53:06;;;;;;;39.25;31.58;;;;;;;;;;4817170;29;20034;-76
2021/04/27 09:55:34;;;;;;;31.33;26.67;;;;;;;;;;4809718;29;20034;-75
2021/04/27 09:58:01;;;;;;;36.70;28.73;;;;;;;;;;4818553;29;20034;-73
2021/04/27 10:00:34;;;;;;;32.60;26.40;;;;;;;;;;4828013;29;20076;-76
2021/04/27 10:03:04;;;;;;;30.73;24.02;;;;;;;;;;4827383;29;20094;-77
2021/04/27 10:05:31;;;;;;;33.83;24.90;;;;;;;;;;4827049;29;20039;-77
2021/04/27 10:07:58;;;;;;;35.13;26.35;;;;;;;;;;4808178;29;20022;-72
2021/04/27 10:10:25;;;;;;;36.13;27.50;;;;;;;;;;4825522;29;20026;-76
2021/04/27 10:12:51;;;;;;;31.95;25.83;;;;;;;;;;4831497;29;20478;-71
2021/04/27 10:15:17;;;;;;;31.70;26.75;;;;;;;;;;4823459;29;20031;-72
2021/04/27 10:17:46;;;;;;;42.00;30.70;;;;;;;;;;4807616;29;20045;-72
2021/04/27 10:20:13;;;;;;;44.53;34.22;;;;;;;;;;4814547;29;20078;-73
2021/04/27 10:22:43;;;;;;;36.50;29.23;;;;;;;;;;4819094;29;20042;-71
2021/04/27 10:25:23;;;;;;;30.55;25.83;;;;;;;;;;4821361;29;20038;-71
2021/04/27 10:28:05;;;;;;;37.45;30.13;;;;;;;;;;4813744;29;20127;-71
2021/04/27 10:30:33;;;;;;;34.42;28.75;;;;;;;;;;4819641;29;20102;-72
2021/04/27 10:33:02;;;;;;;40.15;32.05;;;;;;;;;;4815422;29;20026;-70
2021/04/27 10:35:29;;;;;;;41.30;31.67;;;;;;;;;;4818215;29;20042;-70
2021/04/27 10:38:01;;;;;;;38.20;30.98;;;;;;;;;;4796572;29;20065;-71
2021/04/27 10:40:47;;;;;;;35.33;28.52;;;;;;;;;;4822646;29;20030;-71
2021/04/27 10:43:26;;;;;;;37.60;30.00;;;;;;;;;;4809698;29;20050;-69
2021/04/27 10:45:59;;;;;;;30.33;26.13;;;;;;;;;;4815245;29;20043;-69
2021/04/27 10:48:25;;;;;;;42.75;30.85;;;;;;;;;;4800474;29;20428;-72
2021/04/27 10:50:51;;;;;;;34.13;27.85;;;;;;;;;;4812283;29;20035;-77
2021/04/27 10:53:31;;;;;;;31.17;25.83;;;;;;;;;;4803690;29;20065;-73
2021/04/27 10:55:58;;;;;;;37.22;29.30;;;;;;;;;;4818315;29;20038;-72
2021/04/27 10:58:44;;;;;;;32.40;26.73;;;;;;;;;;4808267;29;20023;-74
2021/04/27 11:01:20;;;;;;;29.60;23.88;;;;;;;;;;4799821;29;20042;-74
2021/04/27 11:03:50;;;;;;;31.35;25.38;;;;;;;;;;4819316;29;20900;-73
2021/04/27 11:06:16;;;;;;;31.55;25.02;;;;;;;;;;4809725;29;20043;-77
2021/04/27 11:08:43;;;;;;;33.17;26.45;;;;;;;;;;4820368;29;20792;-77
2021/04/27 11:11:16;;;;;;;30.67;26.13;;;;;;;;;;4822084;29;20391;-74
2021/04/27 11:13:44;;;;;;;30.13;24.48;;;;;;;;;;4815666;29;20023;-76
2021/04/27 11:16:23;;;;;;;24.00;20.65;;;;;;;;;;4822923;29;20046;-78
2021/04/27 11:18:49;;;;;;;21.40;18.38;;;;;;;;;;4820355;29;20087;-76
2021/04/27 11:21:16;;;;;;;30.50;25.23;;;;;;;;;;4820085;29;20031;-76
2021/04/27 11:23:44;;;;;;;26.83;21.33;;;;;;;;;;4826570;29;20051;-75
2021/04/27 11:26:29;;;;;;;26.67;20.70;;;;;;;;;;4817095;29;20035;-76
2021/04/27 11:28:56;;;;;;;26.77;21.45;;;;;;;;;;4814992;29;20034;-74
2021/04/27 11:31:23;;;;;;;25.55;20.35;;;;;;;;;;4827887;29;20041;-74
2021/04/27 11:33:56;;;;;;;28.75;23.98;;;;;;;;;;4829778;29;20054;-74
2021/04/27 11:36:35;;;;;;;27.77;22.10;;;;;;;;;;4796699;29;20031;-73
2021/04/27 11:39:22;;;;;;;28.95;23.75;;;;;;;;;;4818999;29;20031;-76
2021/04/27 11:41:55;;;;;;;24.30;20.90;;;;;;;;;;4807759;29;20035;-70
2021/04/27 11:44:22;;;;;;;24.67;21.27;;;;;;;;;;4817793;29;20043;-71
2021/04/27 11:46:59;;;;;;;19.38;17.25;;;;;;;;;;4818787;29;20038;-68
2021/04/27 11:49:44;;;;;;;21.70;17.77;;;;;;;;;;4808113;29;20042;-69
2021/04/27 11:52:10;;;;;;;23.13;20.63;;;;;;;;;;4814005;29;20034;-71
2021/04/27 11:54:36;;;;;;;25.63;21.67;;;;;;;;;;4813604;29;20101;-69
2021/04/27 11:57:02;;;;;;;25.42;21.23;;;;;;;;;;4820351;29;20114;-72
2021/04/27 11:59:28;;;;;;;25.08;21.85;;;;;;;;;;4811117;29;20031;-71
2021/04/27 12:02:01;;;;;;;28.10;23.85;;;;;;;;;;4818058;29;20110;-73
2021/04/27 12:04:27;;;;;;;27.52;22.60;;;;;;;;;;4820362;29;20371;-72
2021/04/27 12:07:00;;;;;;;32.75;24.52;;;;;;;;;;4820338;29;20130;-70
2021/04/27 12:09:27;;;;;;;24.17;21.40;;;;;;;;;;4812387;29;20552;-72
2021/04/27 12:11:53;;;;;;;26.42;20.98;;;;;;;;;;4816927;29;20038;-71
2021/04/27 12:14:19;;;;;;;28.05;25.00;;;;;;;;;;4815625;29;20031;-70
2021/04/27 12:16:46;;;;;;;28.38;22.67;;;;;;;;;;4814297;29;20405;-71
2021/04/27 12:19:16;;;;;;;29.80;23.20;;;;;;;;;;4814797;29;20034;-70
2021/04/27 12:22:07;;;;;;;26.17;22.48;;;;;;;;;;4818130;29;20508;-70
2021/04/27 12:24:38;;;;;;;28.30;21.33;;;;;;;;;;4816979;29;20035;-68
2021/04/27 12:27:09;;;;;;;21.70;18.13;;;;;;;;;;4816551;29;20070;-66
2021/04/27 12:29:35;;;;;;;20.75;16.15;;;;;;;;;;4813726;29;20034;-69
2021/04/27 12:32:07;;;;;;;23.17;17.23;;;;;;;;;;4820679;29;20058;-68
2021/04/27 12:34:33;;;;;;;20.10;15.57;;;;;;;;;;4818091;29;20037;-74
2021/04/27 12:36:59;;;;;;;23.42;17.60;;;;;;;;;;4822702;29;20103;-70
2021/04/27 12:39:25;;;;;;;23.70;17.58;;;;;;;;;;4816123;29;20030;-71
2021/04/27 12:41:52;;;;;;;26.65;18.52;;;;;;;;;;4815011;29;20027;-69
2021/04/27 12:44:25;;;;;;;23.20;17.02;;;;;;;;;;4808539;29;20031;-70